sensor_id;sensor_type;location;lat;lon;timestamp;P1;durP1;ratioP1;P2;durP2;ratioP2
57858;SDS011;49153;45.568;11.894;2023-01-10T00:01:56;19.20;;;11.40;;
57858;SDS011;49153;45.568;11.894;2023-01-10T00:04:22;20.42;;;12.00;;
57858;SDS011;49153;45.568;11.894;2023-01-10T00:06:50;19.02;;;12.45;;
57858;SDS011;49153;45.568;11.894;2023-01-10T00:09:16;19.13;;;11.05;;
57858;SDS011;49153;45.568;11.894;2023-01-10T00:11:41;20.85;;;12.23;;
57858;SDS011;49153;45.568;11.894;2023-01-10T00:14:25;21.02;;;12.85;;
57858;SDS011;49153;45.568;11.894;2023-01-10T00:16:52;19.70;;;12.50;;
57858;SDS011;49153;45.568;11.894;2023-01-10T00:19:18;20.27;;;12.60;;
57858;SDS011;49153;45.568;11.894;2023-01-10T00:21:43;22.17;;;12.80;;
57858;SDS011;49153;45.568;11.894;2023-01-10T00:24:09;24.00;;;15.20;;
57858;SDS011;49153;45.568;11.894;2023-01-10T00:26:45;20.92;;;13.00;;
57858;SDS011;49153;45.568;11.894;2023-01-10T00:29:15;21.65;;;12.85;;
57858;SDS011;49153;45.568;11.894;2023-01-10T00:31:41;21.42;;;12.75;;
57858;SDS011;49153;45.568;11.894;2023-01-10T00:34:07;21.88;;;13.43;;
57858;SDS011;49153;45.568;11.894;2023-01-10T00:36:32;19.75;;;12.25;;
57858;SDS011;49153;45.568;11.894;2023-01-10T00:38:58;23.70;;;13.05;;
57858;SDS011;49153;45.568;11.894;2023-01-10T00:41:23;23.35;;;13.20;;
57858;SDS011;49153;45.568;11.894;2023-01-10T00:44:07;20.65;;;12.35;;
57858;SDS011;49153;45.568;11.894;2023-01-10T00:46:33;18.30;;;10.70;;
57858;SDS011;49153;45.568;11.894;2023-01-10T00:48:58;23.60;;;12.45;;
57858;SDS011;49153;45.568;11.894;2023-01-10T00:51:24;20.70;;;12.63;;
57858;SDS011;49153;45.568;11.894;2023-01-10T00:53:49;19.77;;;11.70;;
57858;SDS011;49153;45.568;11.894;2023-01-10T00:56:15;20.80;;;12.25;;
57858;SDS011;49153;45.568;11.894;2023-01-10T00:58:41;21.25;;;12.32;;
57858;SDS011;49153;45.568;11.894;2023-01-10T01:01:08;19.50;;;11.82;;
57858;SDS011;49153;45.568;11.894;2023-01-10T01:03:34;22.23;;;12.00;;
57858;SDS011;49153;45.568;11.894;2023-01-10T01:06:03;19.75;;;11.02;;
57858;SDS011;49153;45.568;11.894;2023-01-10T01:08:30;18.13;;;10.30;;
57858;SDS011;49153;45.568;11.894;2023-01-10T01:10:55;22.60;;;13.30;;
57858;SDS011;49153;45.568;11.894;2023-01-10T01:13:21;21.80;;;13.88;;
57858;SDS011;49153;45.568;11.894;2023-01-10T01:15:46;23.20;;;13.43;;
57858;SDS011;49153;45.568;11.894;2023-01-10T01:18:14;24.02;;;14.55;;
57858;SDS011;49153;45.568;11.894;2023-01-10T01:20:41;26.92;;;14.45;;
57858;SDS011;49153;45.568;11.894;2023-01-10T01:23:10;23.90;;;13.93;;
57858;SDS011;49153;45.568;11.894;2023-01-10T01:25:36;24.25;;;13.55;;
57858;SDS011;49153;45.568;11.894;2023-01-10T01:28:01;21.85;;;13.07;;
57858;SDS011;49153;45.568;11.894;2023-01-10T01:30:27;19.27;;;12.10;;
57858;SDS011;49153;45.568;11.894;2023-01-10T01:32:52;22.92;;;13.48;;
57858;SDS011;49153;45.568;11.894;2023-01-10T01:35:18;18.33;;;11.27;;
57858;SDS011;49153;45.568;11.894;2023-01-10T01:37:43;22.63;;;12.48;;
57858;SDS011;49153;45.568;11.894;2023-01-10T01:40:18;20.67;;;12.38;;
57858;SDS011;49153;45.568;11.894;2023-01-10T01:42:46;22.77;;;13.35;;
57858;SDS011;49153;45.568;11.894;2023-01-10T01:50:15;22.60;;;12.73;;
57858;SDS011;49153;45.568;11.894;2023-01-10T01:52:46;25.23;;;13.57;;
57858;SDS011;49153;45.568;11.894;2023-01-10T01:55:14;25.83;;;13.82;;
57858;SDS011;49153;45.568;11.894;2023-01-10T01:57:40;22.38;;;12.35;;
57858;SDS011;49153;45.568;11.894;2023-01-10T02:00:05;23.63;;;12.82;;
57858;SDS011;49153;45.568;11.894;2023-01-10T02:02:32;24.95;;;12.98;;
57858;SDS011;49153;45.568;11.894;2023-01-10T02:05:03;22.00;;;13.23;;
57858;SDS011;49153;45.568;11.894;2023-01-10T02:07:33;24.50;;;13.25;;
57858;SDS011;49153;45.568;11.894;2023-01-10T02:12:49;21.73;;;12.27;;
57858;SDS011;49153;45.568;11.894;2023-01-10T02:15:17;20.10;;;12.55;;
57858;SDS011;49153;45.568;11.894;2023-01-10T02:17:45;22.38;;;12.32;;
57858;SDS011;49153;45.568;11.894;2023-01-10T02:20:13;21.73;;;12.73;;
57858;SDS011;49153;45.568;11.894;2023-01-10T02:39:33;18.83;;;10.77;;
57858;SDS011;49153;45.568;11.894;2023-01-10T02:42:06;20.88;;;11.70;;
57858;SDS011;49153;45.568;11.894;2023-01-10T02:47:06;18.52;;;10.77;;
57858;SDS011;49153;45.568;11.894;2023-01-10T02:49:50;22.92;;;12.88;;
57858;SDS011;49153;45.568;11.894;2023-01-10T02:52:17;18.92;;;10.48;;
57858;SDS011;49153;45.568;11.894;2023-01-10T02:54:46;22.52;;;12.32;;
57858;SDS011;49153;45.568;11.894;2023-01-10T03:11:15;22.20;;;12.45;;
57858;SDS011;49153;45.568;11.894;2023-01-10T03:13:53;19.80;;;11.13;;
57858;SDS011;49153;45.568;11.894;2023-01-10T03:16:23;22.90;;;11.73;;
57858;SDS011;49153;45.568;11.894;2023-01-10T03:18:55;22.35;;;12.10;;
57858;SDS011;49153;45.568;11.894;2023-01-10T03:21:24;22.10;;;12.25;;
57858;SDS011;49153;45.568;11.894;2023-01-10T03:23:52;20.58;;;11.55;;
57858;SDS011;49153;45.568;11.894;2023-01-10T03:26:28;22.95;;;12.55;;
57858;SDS011;49153;45.568;11.894;2023-01-10T03:29:01;20.27;;;10.52;;
57858;SDS011;49153;45.568;11.894;2023-01-10T03:31:36;22.27;;;11.90;;
57858;SDS011;49153;45.568;11.894;2023-01-10T03:34:08;23.95;;;11.95;;
57858;SDS011;49153;45.568;11.894;2023-01-10T03:39:22;23.75;;;12.05;;
57858;SDS011;49153;45.568;11.894;2023-01-10T03:42:05;21.48;;;12.35;;
57858;SDS011;49153;45.568;11.894;2023-01-10T03:44:39;21.20;;;11.45;;
57858;SDS011;49153;45.568;11.894;2023-01-10T03:47:22;19.05;;;10.73;;
57858;SDS011;49153;45.568;11.894;2023-01-10T03:49:53;21.90;;;11.65;;
57858;SDS011;49153;45.568;11.894;2023-01-10T03:52:20;19.75;;;11.23;;
57858;SDS011;49153;45.568;11.894;2023-01-10T03:54:47;23.70;;;12.82;;
57858;SDS011;49153;45.568;11.894;2023-01-10T03:57:16;21.08;;;11.75;;
57858;SDS011;49153;45.568;11.894;2023-01-10T03:59:43;22.45;;;12.25;;
57858;SDS011;49153;45.568;11.894;2023-01-10T04:02:10;20.65;;;11.60;;
57858;SDS011;49153;45.568;11.894;2023-01-10T04:04:36;20.02;;;11.10;;
57858;SDS011;49153;45.568;11.894;2023-01-10T04:07:01;19.85;;;11.23;;
57858;SDS011;49153;45.568;11.894;2023-01-10T04:09:27;18.25;;;9.82;;
57858;SDS011;49153;45.568;11.894;2023-01-10T04:11:52;16.25;;;9.05;;
57858;SDS011;49153;45.568;11.894;2023-01-10T04:14:17;19.85;;;11.60;;
57858;SDS011;49153;45.568;11.894;2023-01-10T04:16:43;18.90;;;10.68;;
57858;SDS011;49153;45.568;11.894;2023-01-10T04:19:08;21.85;;;10.23;;
57858;SDS011;49153;45.568;11.894;2023-01-10T04:21:34;20.27;;;11.32;;
57858;SDS011;49153;45.568;11.894;2023-01-10T04:23:59;19.50;;;10.93;;
57858;SDS011;49153;45.568;11.894;2023-01-10T04:26:25;21.20;;;11.27;;
57858;SDS011;49153;45.568;11.894;2023-01-10T04:28:50;18.63;;;9.77;;
57858;SDS011;49153;45.568;11.894;2023-01-10T04:31:15;23.60;;;12.55;;
57858;SDS011;49153;45.568;11.894;2023-01-10T04:33:41;17.02;;;10.40;;
57858;SDS011;49153;45.568;11.894;2023-01-10T04:36:06;16.70;;;9.00;;
57858;SDS011;49153;45.568;11.894;2023-01-10T04:38:32;16.52;;;8.95;;
57858;SDS011;49153;45.568;11.894;2023-01-10T04:40:58;19.27;;;10.05;;
57858;SDS011;49153;45.568;11.894;2023-01-10T04:43:24;15.68;;;9.02;;
57858;SDS011;49153;45.568;11.894;2023-01-10T04:45:49;16.95;;;9.60;;
57858;SDS011;49153;45.568;11.894;2023-01-10T04:48:15;14.02;;;8.25;;
57858;SDS011;49153;45.568;11.894;2023-01-10T04:50:41;19.25;;;10.65;;
57858;SDS011;49153;45.568;11.894;2023-01-10T04:53:06;16.98;;;9.40;;
57858;SDS011;49153;45.568;11.894;2023-01-10T04:55:32;16.60;;;9.35;;
57858;SDS011;49153;45.568;11.894;2023-01-10T04:57:58;14.82;;;8.82;;
57858;SDS011;49153;45.568;11.894;2023-01-10T05:00:26;19.55;;;11.07;;
57858;SDS011;49153;45.568;11.894;2023-01-10T05:02:55;17.58;;;10.10;;
57858;SDS011;49153;45.568;11.894;2023-01-10T05:05:21;15.40;;;9.18;;
57858;SDS011;49153;45.568;11.894;2023-01-10T05:07:47;16.25;;;9.65;;
57858;SDS011;49153;45.568;11.894;2023-01-10T05:10:12;15.25;;;9.30;;
57858;SDS011;49153;45.568;11.894;2023-01-10T05:12:38;21.45;;;10.23;;
57858;SDS011;49153;45.568;11.894;2023-01-10T05:15:04;15.90;;;9.05;;
57858;SDS011;49153;45.568;11.894;2023-01-10T05:17:30;18.65;;;9.75;;
57858;SDS011;49153;45.568;11.894;2023-01-10T05:19:56;17.02;;;9.07;;
57858;SDS011;49153;45.568;11.894;2023-01-10T05:22:21;18.95;;;10.88;;
57858;SDS011;49153;45.568;11.894;2023-01-10T05:24:46;16.98;;;9.45;;
57858;SDS011;49153;45.568;11.894;2023-01-10T05:27:12;14.45;;;8.82;;
57858;SDS011;49153;45.568;11.894;2023-01-10T05:29:37;15.68;;;8.48;;
57858;SDS011;49153;45.568;11.894;2023-01-10T05:32:03;16.73;;;8.85;;
57858;SDS011;49153;45.568;11.894;2023-01-10T05:34:28;17.38;;;9.55;;
57858;SDS011;49153;45.568;11.894;2023-01-10T05:36:54;19.08;;;9.65;;
57858;SDS011;49153;45.568;11.894;2023-01-10T05:39:19;23.75;;;11.60;;
57858;SDS011;49153;45.568;11.894;2023-01-10T05:41:45;14.18;;;8.13;;
57858;SDS011;49153;45.568;11.894;2023-01-10T05:44:11;19.63;;;9.90;;
57858;SDS011;49153;45.568;11.894;2023-01-10T05:46:36;18.08;;;9.30;;
57858;SDS011;49153;45.568;11.894;2023-01-10T05:49:02;16.90;;;9.30;;
57858;SDS011;49153;45.568;11.894;2023-01-10T05:51:28;14.50;;;8.15;;
57858;SDS011;49153;45.568;11.894;2023-01-10T05:53:53;19.50;;;10.88;;
57858;SDS011;49153;45.568;11.894;2023-01-10T05:56:19;20.70;;;10.02;;
57858;SDS011;49153;45.568;11.894;2023-01-10T05:58:44;24.05;;;11.32;;
57858;SDS011;49153;45.568;11.894;2023-01-10T06:01:10;18.45;;;9.07;;
57858;SDS011;49153;45.568;11.894;2023-01-10T06:03:36;23.48;;;11.43;;
57858;SDS011;49153;45.568;11.894;2023-01-10T06:06:01;23.23;;;11.38;;
57858;SDS011;49153;45.568;11.894;2023-01-10T06:08:29;24.92;;;11.77;;
57858;SDS011;49153;45.568;11.894;2023-01-10T06:10:55;22.08;;;11.02;;
57858;SDS011;49153;45.568;11.894;2023-01-10T06:13:20;21.55;;;10.65;;
57858;SDS011;49153;45.568;11.894;2023-01-10T06:15:46;20.75;;;10.55;;
57858;SDS011;49153;45.568;11.894;2023-01-10T06:18:12;21.08;;;11.07;;
57858;SDS011;49153;45.568;11.894;2023-01-10T06:20:38;23.23;;;11.30;;
57858;SDS011;49153;45.568;11.894;2023-01-10T06:23:04;21.80;;;10.32;;
57858;SDS011;49153;45.568;11.894;2023-01-10T06:25:30;24.80;;;12.00;;
57858;SDS011;49153;45.568;11.894;2023-01-10T06:27:57;24.75;;;13.07;;
57858;SDS011;49153;45.568;11.894;2023-01-10T06:30:23;23.63;;;11.65;;
57858;SDS011;49153;45.568;11.894;2023-01-10T06:32:48;22.50;;;11.05;;
57858;SDS011;49153;45.568;11.894;2023-01-10T06:35:14;22.73;;;11.68;;
57858;SDS011;49153;45.568;11.894;2023-01-10T06:37:39;20.17;;;10.57;;
57858;SDS011;49153;45.568;11.894;2023-01-10T06:40:05;19.92;;;10.98;;
57858;SDS011;49153;45.568;11.894;2023-01-10T06:42:31;20.65;;;10.38;;
57858;SDS011;49153;45.568;11.894;2023-01-10T06:44:56;19.30;;;10.20;;
57858;SDS011;49153;45.568;11.894;2023-01-10T06:47:22;23.17;;;12.73;;
57858;SDS011;49153;45.568;11.894;2023-01-10T06:49:47;17.77;;;9.90;;
57858;SDS011;49153;45.568;11.894;2023-01-10T06:52:12;20.55;;;11.10;;
57858;SDS011;49153;45.568;11.894;2023-01-10T06:54:38;18.08;;;9.80;;
57858;SDS011;49153;45.568;11.894;2023-01-10T06:57:05;19.90;;;11.48;;
57858;SDS011;49153;45.568;11.894;2023-01-10T06:59:31;21.95;;;11.43;;
57858;SDS011;49153;45.568;11.894;2023-01-10T07:01:57;20.08;;;10.88;;
57858;SDS011;49153;45.568;11.894;2023-01-10T07:04:22;18.98;;;10.32;;
57858;SDS011;49153;45.568;11.894;2023-01-10T07:06:48;19.23;;;11.05;;
57858;SDS011;49153;45.568;11.894;2023-01-10T07:09:13;19.52;;;9.52;;
57858;SDS011;49153;45.568;11.894;2023-01-10T07:11:39;17.08;;;9.05;;
57858;SDS011;49153;45.568;11.894;2023-01-10T07:14:04;16.60;;;9.10;;
57858;SDS011;49153;45.568;11.894;2023-01-10T07:16:30;18.55;;;9.45;;
57858;SDS011;49153;45.568;11.894;2023-01-10T07:18:55;18.48;;;10.90;;
57858;SDS011;49153;45.568;11.894;2023-01-10T07:21:22;15.25;;;9.05;;
57858;SDS011;49153;45.568;11.894;2023-01-10T07:23:48;17.30;;;9.82;;
57858;SDS011;49153;45.568;11.894;2023-01-10T07:26:14;17.98;;;9.95;;
57858;SDS011;49153;45.568;11.894;2023-01-10T07:28:42;18.52;;;9.75;;
57858;SDS011;49153;45.568;11.894;2023-01-10T07:31:08;22.02;;;11.95;;
57858;SDS011;49153;45.568;11.894;2023-01-10T07:33:34;21.67;;;12.45;;
57858;SDS011;49153;45.568;11.894;2023-01-10T07:36:00;28.27;;;14.68;;
57858;SDS011;49153;45.568;11.894;2023-01-10T07:38:26;22.40;;;12.95;;
57858;SDS011;49153;45.568;11.894;2023-01-10T07:40:52;27.63;;;15.45;;
57858;SDS011;49153;45.568;11.894;2023-01-10T07:43:17;23.80;;;13.93;;
57858;SDS011;49153;45.568;11.894;2023-01-10T07:45:42;29.98;;;17.30;;
57858;SDS011;49153;45.568;11.894;2023-01-10T07:48:08;27.85;;;14.98;;
57858;SDS011;49153;45.568;11.894;2023-01-10T07:50:34;26.48;;;15.60;;
57858;SDS011;49153;45.568;11.894;2023-01-10T07:53:02;29.80;;;15.05;;
57858;SDS011;49153;45.568;11.894;2023-01-10T07:55:29;27.73;;;15.88;;
57858;SDS011;49153;45.568;11.894;2023-01-10T07:57:55;26.52;;;14.63;;
57858;SDS011;49153;45.568;11.894;2023-01-10T08:00:20;29.30;;;15.85;;
57858;SDS011;49153;45.568;11.894;2023-01-10T08:02:46;27.60;;;15.63;;
57858;SDS011;49153;45.568;11.894;2023-01-10T08:05:12;40.45;;;22.40;;
57858;SDS011;49153;45.568;11.894;2023-01-10T08:07:38;31.80;;;17.58;;
57858;SDS011;49153;45.568;11.894;2023-01-10T08:10:04;37.45;;;21.27;;
57858;SDS011;49153;45.568;11.894;2023-01-10T08:12:31;31.23;;;17.88;;
57858;SDS011;49153;45.568;11.894;2023-01-10T08:14:57;35.75;;;21.38;;
57858;SDS011;49153;45.568;11.894;2023-01-10T08:17:23;34.25;;;20.42;;
57858;SDS011;49153;45.568;11.894;2023-01-10T08:19:48;36.13;;;20.70;;
57858;SDS011;49153;45.568;11.894;2023-01-10T08:22:14;27.95;;;17.13;;
57858;SDS011;49153;45.568;11.894;2023-01-10T08:24:39;32.38;;;16.70;;
57858;SDS011;49153;45.568;11.894;2023-01-10T08:27:05;29.05;;;17.17;;
57858;SDS011;49153;45.568;11.894;2023-01-10T08:29:30;32.80;;;19.88;;
57858;SDS011;49153;45.568;11.894;2023-01-10T08:31:55;31.33;;;18.10;;
57858;SDS011;49153;45.568;11.894;2023-01-10T08:34:21;31.58;;;18.42;;
57858;SDS011;49153;45.568;11.894;2023-01-10T08:36:50;31.45;;;17.13;;
57858;SDS011;49153;45.568;11.894;2023-01-10T08:39:16;29.25;;;17.90;;
57858;SDS011;49153;45.568;11.894;2023-01-10T08:41:42;27.23;;;15.82;;
57858;SDS011;49153;45.568;11.894;2023-01-10T08:44:08;27.75;;;17.33;;
57858;SDS011;49153;45.568;11.894;2023-01-10T08:46:35;24.67;;;15.48;;
57858;SDS011;49153;45.568;11.894;2023-01-10T08:49:02;28.15;;;16.05;;
57858;SDS011;49153;45.568;11.894;2023-01-10T08:51:27;28.52;;;15.25;;
57858;SDS011;49153;45.568;11.894;2023-01-10T08:53:53;24.90;;;15.07;;
57858;SDS011;49153;45.568;11.894;2023-01-10T08:56:18;21.77;;;14.15;;
57858;SDS011;49153;45.568;11.894;2023-01-10T08:58:44;23.52;;;13.63;;
57858;SDS011;49153;45.568;11.894;2023-01-10T09:01:09;23.08;;;13.57;;
57858;SDS011;49153;45.568;11.894;2023-01-10T09:03:36;23.55;;;13.32;;
57858;SDS011;49153;45.568;11.894;2023-01-10T09:06:01;20.40;;;12.98;;
57858;SDS011;49153;45.568;11.894;2023-01-10T09:08:27;22.23;;;12.82;;
57858;SDS011;49153;45.568;11.894;2023-01-10T09:10:53;20.30;;;11.82;;
57858;SDS011;49153;45.568;11.894;2023-01-10T09:13:18;19.52;;;13.15;;
57858;SDS011;49153;45.568;11.894;2023-01-10T09:15:44;23.52;;;13.50;;
57858;SDS011;49153;45.568;11.894;2023-01-10T09:18:10;18.75;;;11.85;;
57858;SDS011;49153;45.568;11.894;2023-01-10T09:20:37;19.90;;;12.40;;
57858;SDS011;49153;45.568;11.894;2023-01-10T09:23:05;19.73;;;12.73;;
57858;SDS011;49153;45.568;11.894;2023-01-10T09:25:32;19.15;;;13.13;;
57858;SDS011;49153;45.568;11.894;2023-01-10T09:27:58;19.20;;;12.45;;
57858;SDS011;49153;45.568;11.894;2023-01-10T09:30:25;20.35;;;13.43;;
57858;SDS011;49153;45.568;11.894;2023-01-10T09:32:51;18.50;;;11.88;;
57858;SDS011;49153;45.568;11.894;2023-01-10T09:35:17;20.15;;;12.48;;
57858;SDS011;49153;45.568;11.894;2023-01-10T09:37:43;21.25;;;12.50;;
57858;SDS011;49153;45.568;11.894;2023-01-10T09:40:12;18.90;;;11.80;;
57858;SDS011;49153;45.568;11.894;2023-01-10T09:45:41;22.05;;;13.40;;
57858;SDS011;49153;45.568;11.894;2023-01-10T09:48:13;17.60;;;12.18;;
57858;SDS011;49153;45.568;11.894;2023-01-10T09:51:08;18.10;;;12.10;;
57858;SDS011;49153;45.568;11.894;2023-01-10T09:53:40;22.35;;;13.50;;
57858;SDS011;49153;45.568;11.894;2023-01-10T09:56:08;20.80;;;12.52;;
57858;SDS011;49153;45.568;11.894;2023-01-10T09:58:34;19.85;;;13.25;;
57858;SDS011;49153;45.568;11.894;2023-01-10T10:06:18;20.27;;;12.63;;
57858;SDS011;49153;45.568;11.894;2023-01-10T10:08:46;19.45;;;13.38;;
57858;SDS011;49153;45.568;11.894;2023-01-10T10:16:35;22.30;;;14.00;;
57858;SDS011;49153;45.568;11.894;2023-01-10T10:28:23;20.85;;;14.75;;
57858;SDS011;49153;45.568;11.894;2023-01-10T10:36:29;20.23;;;14.60;;
57858;SDS011;49153;45.568;11.894;2023-01-10T10:39:12;23.50;;;15.68;;
57858;SDS011;49153;45.568;11.894;2023-01-10T10:41:41;20.00;;;13.90;;
57858;SDS011;49153;45.568;11.894;2023-01-10T10:46:49;18.40;;;12.93;;
57858;SDS011;49153;45.568;11.894;2023-01-10T10:49:21;19.45;;;12.32;;
57858;SDS011;49153;45.568;11.894;2023-01-10T10:52:01;18.50;;;11.55;;
57858;SDS011;49153;45.568;11.894;2023-01-10T10:54:33;15.75;;;10.65;;
57858;SDS011;49153;45.568;11.894;2023-01-10T10:57:00;21.23;;;12.27;;
57858;SDS011;49153;45.568;11.894;2023-01-10T10:59:25;16.77;;;12.20;;
57858;SDS011;49153;45.568;11.894;2023-01-10T11:01:50;15.07;;;10.93;;
57858;SDS011;49153;45.568;11.894;2023-01-10T11:04:20;15.63;;;10.20;;
57858;SDS011;49153;45.568;11.894;2023-01-10T11:06:47;17.00;;;10.32;;
57858;SDS011;49153;45.568;11.894;2023-01-10T11:09:23;14.15;;;9.52;;
57858;SDS011;49153;45.568;11.894;2023-01-10T11:14:54;16.55;;;10.20;;
57858;SDS011;49153;45.568;11.894;2023-01-10T11:17:21;14.48;;;9.40;;
57858;SDS011;49153;45.568;11.894;2023-01-10T11:20:03;13.20;;;9.18;;
57858;SDS011;49153;45.568;11.894;2023-01-10T11:22:49;13.40;;;8.75;;
57858;SDS011;49153;45.568;11.894;2023-01-10T11:25:19;12.13;;;8.43;;
57858;SDS011;49153;45.568;11.894;2023-01-10T11:27:47;13.93;;;10.10;;
57858;SDS011;49153;45.568;11.894;2023-01-10T11:30:25;13.48;;;9.65;;
57858;SDS011;49153;45.568;11.894;2023-01-10T11:32:59;12.98;;;9.85;;
57858;SDS011;49153;45.568;11.894;2023-01-10T11:35:37;13.82;;;9.23;;
57858;SDS011;49153;45.568;11.894;2023-01-10T11:38:08;11.73;;;9.32;;
57858;SDS011;49153;45.568;11.894;2023-01-10T11:43:36;14.07;;;9.25;;
57858;SDS011;49153;45.568;11.894;2023-01-10T11:51:27;12.00;;;8.82;;
57858;SDS011;49153;45.568;11.894;2023-01-10T11:53:56;15.70;;;9.88;;
57858;SDS011;49153;45.568;11.894;2023-01-10T11:56:26;13.68;;;9.15;;
57858;SDS011;49153;45.568;11.894;2023-01-10T11:58:57;14.40;;;10.13;;
57858;SDS011;49153;45.568;11.894;2023-01-10T12:01:36;13.70;;;9.20;;
57858;SDS011;49153;45.568;11.894;2023-01-10T12:04:03;14.32;;;9.98;;
57858;SDS011;49153;45.568;11.894;2023-01-10T12:06:29;13.75;;;9.95;;
57858;SDS011;49153;45.568;11.894;2023-01-10T12:08:57;13.98;;;9.40;;
57858;SDS011;49153;45.568;11.894;2023-01-10T12:11:27;14.55;;;9.43;;
57858;SDS011;49153;45.568;11.894;2023-01-10T12:13:56;12.07;;;8.75;;
57858;SDS011;49153;45.568;11.894;2023-01-10T12:16:28;15.20;;;10.50;;
57858;SDS011;49153;45.568;11.894;2023-01-10T12:18:54;15.40;;;10.10;;
57858;SDS011;49153;45.568;11.894;2023-01-10T12:21:32;14.00;;;10.83;;
57858;SDS011;49153;45.568;11.894;2023-01-10T12:24:03;13.90;;;9.75;;
57858;SDS011;49153;45.568;11.894;2023-01-10T12:26:36;14.18;;;10.43;;
57858;SDS011;49153;45.568;11.894;2023-01-10T12:29:07;13.32;;;9.70;;
57858;SDS011;49153;45.568;11.894;2023-01-10T12:31:38;15.70;;;10.70;;
57858;SDS011;49153;45.568;11.894;2023-01-10T12:34:38;14.02;;;10.52;;
57858;SDS011;49153;45.568;11.894;2023-01-10T12:50:42;13.90;;;10.15;;
57858;SDS011;49153;45.568;11.894;2023-01-10T12:55:51;13.15;;;9.55;;
57858;SDS011;49153;45.568;11.894;2023-01-10T13:01:18;12.27;;;9.68;;
57858;SDS011;49153;45.568;11.894;2023-01-10T13:03:52;13.18;;;10.00;;
57858;SDS011;49153;45.568;11.894;2023-01-10T13:06:23;11.20;;;9.05;;
57858;SDS011;49153;45.568;11.894;2023-01-10T13:08:56;12.38;;;9.00;;
57858;SDS011;49153;45.568;11.894;2023-01-10T13:11:23;15.50;;;10.50;;
57858;SDS011;49153;45.568;11.894;2023-01-10T13:13:58;13.90;;;10.43;;
57858;SDS011;49153;45.568;11.894;2023-01-10T13:21:35;15.50;;;11.25;;
57858;SDS011;49153;45.568;11.894;2023-01-10T13:24:03;15.30;;;10.93;;
57858;SDS011;49153;45.568;11.894;2023-01-10T13:26:59;17.58;;;10.82;;
57858;SDS011;49153;45.568;11.894;2023-01-10T13:29:36;15.20;;;10.23;;
57858;SDS011;49153;45.568;11.894;2023-01-10T13:32:49;15.63;;;10.35;;
57858;SDS011;49153;45.568;11.894;2023-01-10T13:34:54;16.67;;;10.20;;
57858;SDS011;49153;45.568;11.894;2023-01-10T13:37:40;13.38;;;10.18;;
57858;SDS011;49153;45.568;11.894;2023-01-10T13:40:16;14.48;;;10.70;;
57858;SDS011;49153;45.568;11.894;2023-01-10T13:42:46;15.75;;;11.15;;
57858;SDS011;49153;45.568;11.894;2023-01-10T13:46:32;15.65;;;10.23;;
57858;SDS011;49153;45.568;11.894;2023-01-10T13:51:19;13.90;;;9.88;;
57858;SDS011;49153;45.568;11.894;2023-01-10T13:59:12;11.15;;;9.23;;
57858;SDS011;49153;45.568;11.894;2023-01-10T14:02:20;13.05;;;9.23;;
57858;SDS011;49153;45.568;11.894;2023-01-10T14:05:06;12.48;;;9.10;;
57858;SDS011;49153;45.568;11.894;2023-01-10T14:10:32;12.30;;;8.55;;
57858;SDS011;49153;45.568;11.894;2023-01-10T14:13:13;12.95;;;9.38;;
57858;SDS011;49153;45.568;11.894;2023-01-10T14:15:44;12.70;;;9.25;;
57858;SDS011;49153;45.568;11.894;2023-01-10T14:20:59;9.43;;;6.70;;
57858;SDS011;49153;45.568;11.894;2023-01-10T14:23:27;7.75;;;6.38;;
57858;SDS011;49153;45.568;11.894;2023-01-10T14:25:59;8.85;;;6.03;;
57858;SDS011;49153;45.568;11.894;2023-01-10T14:28:30;6.78;;;5.50;;
57858;SDS011;49153;45.568;11.894;2023-01-10T14:31:12;7.15;;;5.20;;
57858;SDS011;49153;45.568;11.894;2023-01-10T14:33:51;7.55;;;5.47;;
57858;SDS011;49153;45.568;11.894;2023-01-10T14:36:28;6.82;;;5.13;;
57858;SDS011;49153;45.568;11.894;2023-01-10T14:38:58;6.95;;;4.88;;
57858;SDS011;49153;45.568;11.894;2023-01-10T14:41:30;9.20;;;5.15;;
57858;SDS011;49153;45.568;11.894;2023-01-10T14:44:05;6.57;;;4.78;;
57858;SDS011;49153;45.568;11.894;2023-01-10T14:46:54;7.20;;;4.55;;
57858;SDS011;49153;45.568;11.894;2023-01-10T14:49:27;6.20;;;4.40;;
57858;SDS011;49153;45.568;11.894;2023-01-10T14:52:15;6.05;;;4.38;;
57858;SDS011;49153;45.568;11.894;2023-01-10T14:54:46;4.45;;;2.78;;
57858;SDS011;49153;45.568;11.894;2023-01-10T14:57:22;5.28;;;2.47;;
57858;SDS011;49153;45.568;11.894;2023-01-10T14:59:48;3.70;;;2.20;;
57858;SDS011;49153;45.568;11.894;2023-01-10T15:02:22;3.42;;;1.50;;
57858;SDS011;49153;45.568;11.894;2023-01-10T15:04:55;4.45;;;1.20;;
57858;SDS011;49153;45.568;11.894;2023-01-10T15:07:23;2.00;;;1.20;;
57858;SDS011;49153;45.568;11.894;2023-01-10T15:09:51;2.15;;;1.13;;
57858;SDS011;49153;45.568;11.894;2023-01-10T15:12:20;2.92;;;1.00;;
57858;SDS011;49153;45.568;11.894;2023-01-10T15:14:47;1.63;;;0.98;;
57858;SDS011;49153;45.568;11.894;2023-01-10T15:17:17;10.00;;;1.20;;
57858;SDS011;49153;45.568;11.894;2023-01-10T15:19:45;8.23;;;1.30;;
57858;SDS011;49153;45.568;11.894;2023-01-10T15:22:17;3.03;;;0.98;;
57858;SDS011;49153;45.568;11.894;2023-01-10T15:25:53;2.08;;;1.20;;
57858;SDS011;49153;45.568;11.894;2023-01-10T15:27:45;3.10;;;1.30;;
57858;SDS011;49153;45.568;11.894;2023-01-10T15:30:22;2.88;;;1.40;;
57858;SDS011;49153;45.568;11.894;2023-01-10T15:32:50;5.70;;;2.45;;
57858;SDS011;49153;45.568;11.894;2023-01-10T15:35:18;7.97;;;2.80;;
57858;SDS011;49153;45.568;11.894;2023-01-10T15:37:56;6.80;;;2.78;;
57858;SDS011;49153;45.568;11.894;2023-01-10T15:45:41;7.00;;;2.97;;
57858;SDS011;49153;45.568;11.894;2023-01-10T15:50:55;4.70;;;2.58;;
57858;SDS011;49153;45.568;11.894;2023-01-10T15:56:21;5.70;;;2.20;;
57858;SDS011;49153;45.568;11.894;2023-01-10T15:58:53;4.88;;;2.55;;
57858;SDS011;49153;45.568;11.894;2023-01-10T16:01:20;2.90;;;2.05;;
57858;SDS011;49153;45.568;11.894;2023-01-10T16:03:47;4.93;;;2.10;;
57858;SDS011;49153;45.568;11.894;2023-01-10T16:08:52;4.45;;;2.58;;
57858;SDS011;49153;45.568;11.894;2023-01-10T16:11:21;5.95;;;2.80;;
57858;SDS011;49153;45.568;11.894;2023-01-10T16:14:09;20.02;;;4.63;;
57858;SDS011;49153;45.568;11.894;2023-01-10T16:16:34;9.23;;;3.30;;
57858;SDS011;49153;45.568;11.894;2023-01-10T16:19:00;3.72;;;2.72;;
57858;SDS011;49153;45.568;11.894;2023-01-10T16:21:26;5.88;;;3.33;;
57858;SDS011;49153;45.568;11.894;2023-01-10T16:23:56;7.20;;;4.00;;
57858;SDS011;49153;45.568;11.894;2023-01-10T16:26:22;9.35;;;3.63;;
57858;SDS011;49153;45.568;11.894;2023-01-10T16:28:47;6.75;;;3.55;;
57858;SDS011;49153;45.568;11.894;2023-01-10T16:31:13;4.57;;;3.05;;
57858;SDS011;49153;45.568;11.894;2023-01-10T16:33:38;4.55;;;2.85;;
57858;SDS011;49153;45.568;11.894;2023-01-10T16:36:08;5.63;;;3.47;;
57858;SDS011;49153;45.568;11.894;2023-01-10T16:38:39;7.45;;;4.53;;
57858;SDS011;49153;45.568;11.894;2023-01-10T16:41:04;17.13;;;10.20;;
57858;SDS011;49153;45.568;11.894;2023-01-10T16:43:51;21.45;;;13.55;;
57858;SDS011;49153;45.568;11.894;2023-01-10T16:46:17;12.88;;;7.45;;